createdAt,value
2023-05-14T00:01:49.121Z,101498.81
2023-05-14T00:04:19.774Z,101494.56
2023-05-14T00:06:49.376Z,101508.13
2023-05-14T00:09:21.558Z,101509.63
2023-05-14T00:11:51.103Z,101522.53
2023-05-14T00:14:20.667Z,101526.41
2023-05-14T00:16:50.221Z,101531.03
2023-05-14T00:19:19.757Z,101536.13
2023-05-14T00:21:49.769Z,101539.69
2023-05-14T00:24:22.010Z,101536.28
2023-05-14T00:26:51.579Z,101551.84
2023-05-14T00:29:21.100Z,101577.94
2023-05-14T00:31:50.665Z,101580.34
2023-05-14T00:34:20.187Z,101582.69
2023-05-14T00:36:49.697Z,101571.94
2023-05-14T00:39:21.791Z,101588.78
2023-05-14T00:41:51.291Z,101598.84
2023-05-14T00:44:20.818Z,101606.75
2023-05-14T00:46:50.426Z,101614.66
2023-05-14T00:49:21.271Z,101606.25
2023-05-14T00:51:50.919Z,101608.31
2023-05-14T00:54:23.178Z,101614.78
2023-05-14T00:56:53.472Z,101637.06
2023-05-14T00:59:22.982Z,101635.09
2023-05-14T01:01:52.499Z,101640.78
2023-05-14T01:04:22.065Z,101648.03
2023-05-14T01:06:59.550Z,101635.59
2023-05-14T01:09:37.358Z,101640.44
2023-05-14T01:12:12.723Z,101662.66
2023-05-14T01:14:47.462Z,101674.78
2023-05-14T01:17:20.141Z,101678.56
2023-05-14T01:19:51.291Z,101685.19
2023-05-14T01:22:23.410Z,101690.06
2023-05-14T01:24:52.919Z,101682.41
2023-05-14T01:27:27.310Z,101673.84
2023-05-14T01:30:02.347Z,101678.16
2023-05-14T01:32:33.337Z,101678.50
2023-05-14T01:35:03.757Z,101672.44
2023-05-14T01:37:36.003Z,101666.31
2023-05-14T01:40:05.970Z,101657.41
2023-05-14T01:42:36.174Z,101671.56
2023-05-14T01:45:05.870Z,101676.72
2023-05-14T01:47:35.681Z,101673.22
2023-05-14T01:50:05.264Z,101675.09
2023-05-14T01:52:37.408Z,101668.34
2023-05-14T01:55:08.108Z,101671.56
2023-05-14T01:57:37.578Z,101668.19
2023-05-14T02:00:08.485Z,101659.28
2023-05-14T02:02:38.003Z,101678.84
2023-05-14T02:05:08.464Z,101671.78
2023-05-14T02:07:40.565Z,101682.78
2023-05-14T02:10:11.874Z,101700.81
2023-05-14T02:12:41.374Z,101704.72
2023-05-14T02:15:12.554Z,101715.75
2023-05-14T02:17:42.096Z,101725.03
2023-05-14T02:20:12.983Z,101736.34
2023-05-14T02:22:46.181Z,101743.28
2023-05-14T02:25:15.913Z,101738.03
2023-05-14T02:27:45.506Z,101725.13
2023-05-14T02:30:15.829Z,101729.22
2023-05-14T02:32:46.183Z,101731.78
2023-05-14T02:35:15.796Z,101732.59
2023-05-14T02:37:47.897Z,101726.38
2023-05-14T02:40:17.830Z,101732.13
2023-05-14T02:42:47.391Z,101731.03
2023-05-14T02:45:16.863Z,101726.47
2023-05-14T02:47:46.490Z,101730.75
2023-05-14T02:50:16.019Z,101733.13
2023-05-14T02:52:48.094Z,101731.06
2023-05-14T02:55:17.580Z,101735.41
2023-05-14T02:57:47.071Z,101740.69
2023-05-14T03:00:17.358Z,101746.72
2023-05-14T03:02:47.593Z,101742.34
2023-05-14T03:05:17.693Z,101753.84
2023-05-14T03:07:49.769Z,101765.72
2023-05-14T03:10:19.550Z,101758.88
2023-05-14T03:12:49.584Z,101771.06
2023-05-14T03:15:19.077Z,101770.47
2023-05-14T03:17:48.610Z,101768.06
2023-05-14T03:20:18.373Z,101768.69
2023-05-14T03:22:50.469Z,101762.53
2023-05-14T03:25:20.360Z,101764.44
2023-05-14T03:27:49.844Z,101758.03
2023-05-14T03:30:19.356Z,101757.13
2023-05-14T03:32:48.944Z,101746.66
2023-05-14T03:35:18.547Z,101752.66
2023-05-14T03:37:51.085Z,101753.06
2023-05-14T03:40:21.798Z,101760.19
2023-05-14T03:42:51.505Z,101770.66
2023-05-14T03:45:21.059Z,101770.41
2023-05-14T03:47:50.602Z,101780.44
2023-05-14T03:50:20.244Z,101798.81
2023-05-14T03:52:52.595Z,101812.06
2023-05-14T03:55:22.295Z,101822.16
2023-05-14T03:57:51.815Z,101833.16
2023-05-14T04:00:22.228Z,101836.03
2023-05-14T04:02:51.921Z,101840.78
2023-05-14T04:05:21.551Z,101836.66
2023-05-14T04:07:53.675Z,101834.56
2023-05-14T04:10:23.469Z,101834.78
2023-05-14T04:12:53.096Z,101833.88
2023-05-14T04:15:22.581Z,101823.16
2023-05-14T04:17:52.116Z,101828.66
2023-05-14T04:20:22.142Z,101825.38
2023-05-14T04:22:55.261Z,101816.94
2023-05-14T04:25:24.821Z,101823.00
2023-05-14T04:27:54.293Z,101821.59
2023-05-14T04:30:24.134Z,101815.06
2023-05-14T04:32:54.381Z,101817.66
2023-05-14T04:35:25.196Z,101815.25
2023-05-14T04:37:57.351Z,101813.69
2023-05-14T04:40:27.092Z,101806.72
2023-05-14T04:42:56.801Z,101808.28
2023-05-14T04:45:26.663Z,101802.94
2023-05-14T04:47:56.433Z,101798.94
2023-05-14T04:50:26.561Z,101794.19
2023-05-14T04:52:58.704Z,101789.78
2023-05-14T04:55:28.422Z,101789.78
2023-05-14T04:57:58.065Z,101782.41
2023-05-14T05:00:28.783Z,101774.84
2023-05-14T05:02:58.432Z,101772.31
2023-05-14T05:05:28.024Z,101770.00
2023-05-14T05:08:00.290Z,101764.97
2023-05-14T05:10:29.782Z,101751.63
2023-05-14T05:12:59.299Z,101744.00
2023-05-14T05:15:28.841Z,101730.56
2023-05-14T05:17:58.397Z,101725.75
2023-05-14T05:20:28.434Z,101717.66
2023-05-14T05:23:00.622Z,101717.25
2023-05-14T05:25:30.280Z,101699.28
2023-05-14T05:27:59.797Z,101696.84
2023-05-14T05:30:30.328Z,101681.59
2023-05-14T05:32:59.888Z,101677.81
2023-05-14T05:35:29.420Z,101676.72
2023-05-14T05:38:01.946Z,101661.72
2023-05-14T05:40:31.597Z,101659.53
2023-05-14T05:43:01.124Z,101650.75
2023-05-14T05:45:30.725Z,101637.25
2023-05-14T05:48:00.229Z,101632.16
2023-05-14T05:50:29.906Z,101615.13
2023-05-14T05:53:02.015Z,101615.81
2023-05-14T05:55:31.936Z,101600.84
2023-05-14T05:58:01.425Z,101591.34
2023-05-14T06:00:31.402Z,101584.44
2023-05-14T06:03:03.883Z,101575.56
2023-05-14T06:05:33.491Z,101561.16
2023-05-14T06:08:05.779Z,101534.06
2023-05-14T06:10:36.399Z,101523.88
2023-05-14T06:13:06.932Z,101514.22
2023-05-14T06:15:36.417Z,101514.00
2023-05-14T06:18:06.008Z,101497.09
2023-05-14T06:20:35.563Z,101493.44
2023-05-14T06:23:07.991Z,101473.72
2023-05-14T06:25:37.573Z,101466.97
2023-05-14T06:28:07.516Z,101452.34
2023-05-14T06:30:37.129Z,101447.56
2023-05-14T06:33:06.681Z,101426.41
2023-05-14T06:35:37.192Z,101412.16
2023-05-14T06:38:09.261Z,101412.41
2023-05-14T06:40:38.744Z,101381.91
2023-05-14T06:43:08.214Z,101353.88
2023-05-14T06:45:37.728Z,101323.88
2023-05-14T06:48:10.416Z,101309.47
2023-05-14T06:50:40.037Z,101292.53
2023-05-14T06:53:12.142Z,101290.50
2023-05-14T06:55:41.665Z,101284.81
2023-05-14T06:58:11.565Z,101284.41
2023-05-14T07:00:41.076Z,101271.94
2023-05-14T07:03:10.634Z,101262.31
2023-05-14T07:05:41.386Z,101252.31
2023-05-14T07:08:13.508Z,101248.34
2023-05-14T07:10:43.008Z,101252.81
2023-05-14T07:13:12.525Z,101247.03
2023-05-14T07:15:42.068Z,101243.84
2023-05-14T07:18:11.599Z,101245.78
2023-05-14T07:20:41.115Z,101249.50
2023-05-14T07:23:13.206Z,101237.59
2023-05-14T07:25:42.756Z,101238.72
2023-05-14T07:28:12.229Z,101263.22
2023-05-14T07:30:41.741Z,101272.47
2023-05-14T07:33:11.301Z,101280.59
2023-05-14T07:35:40.821Z,101293.09
2023-05-14T07:38:12.906Z,101289.00
2023-05-14T07:40:42.425Z,101302.28
2023-05-14T07:43:12.872Z,101311.31
2023-05-14T07:45:42.393Z,101325.03
2023-05-14T07:48:12.074Z,101319.53
2023-05-14T07:50:41.821Z,101352.84
2023-05-14T07:53:13.994Z,101359.25
2023-05-14T07:55:44.932Z,101387.94
2023-05-14T07:58:14.459Z,101403.84
2023-05-14T08:00:43.940Z,101452.53
2023-05-14T08:03:13.660Z,101446.00
2023-05-14T08:05:43.246Z,101455.97
2023-05-14T08:08:15.399Z,101464.03
2023-05-14T08:10:44.975Z,101484.06
2023-05-14T08:13:14.478Z,101477.22
2023-05-14T08:15:43.959Z,101477.16
2023-05-14T08:18:13.502Z,101475.66
2023-05-14T08:20:43.008Z,101470.84
2023-05-14T08:23:15.070Z,101473.31
2023-05-14T08:25:44.704Z,101474.81
2023-05-14T08:28:14.216Z,101481.75
2023-05-14T08:30:43.768Z,101463.13
2023-05-14T08:33:13.304Z,101447.94
2023-05-14T08:35:42.801Z,101454.97
2023-05-14T08:38:14.910Z,101461.22
2023-05-14T08:40:44.469Z,101464.84
2023-05-14T08:43:14.548Z,101465.03
2023-05-14T08:45:44.620Z,101457.56
2023-05-14T08:48:16.668Z,101455.16
2023-05-14T08:50:46.910Z,101458.88
2023-05-14T08:53:19.032Z,101457.88
2023-05-14T08:55:49.091Z,101453.59
2023-05-14T08:58:18.617Z,101451.25
2023-05-14T09:00:48.240Z,101465.97
2023-05-14T09:03:18.500Z,101466.09
2023-05-14T09:05:48.579Z,101461.09
2023-05-14T09:08:20.781Z,101460.22
2023-05-14T09:10:50.255Z,101463.72
2023-05-14T09:13:19.740Z,101470.91
2023-05-14T09:15:49.622Z,101469.09
2023-05-14T09:18:20.082Z,101464.97
2023-05-14T09:20:49.844Z,101464.16
2023-05-14T09:23:21.945Z,101461.44
2023-05-14T09:25:51.589Z,101456.56
2023-05-14T09:28:21.484Z,101459.38
2023-05-14T09:30:53.839Z,101455.97
2023-05-14T09:33:30.055Z,101455.09
2023-05-14T09:36:02.410Z,101453.47
2023-05-14T09:38:35.471Z,101449.66
2023-05-14T09:41:05.143Z,101453.25
2023-05-14T09:43:34.653Z,101456.22
2023-05-14T09:46:04.447Z,101444.16
2023-05-14T09:48:34.004Z,101439.81
2023-05-14T09:51:05.379Z,101436.53
2023-05-14T09:53:38.417Z,101431.34
2023-05-14T09:56:08.709Z,101437.53
2023-05-14T09:58:38.221Z,101425.91
2023-05-14T10:01:08.902Z,101434.28
2023-05-14T10:03:38.939Z,101430.53
2023-05-14T10:06:10.755Z,101416.22
2023-05-14T10:08:47.070Z,101414.53
2023-05-14T10:11:18.125Z,101416.81
2023-05-14T10:13:53.051Z,101413.41
2023-05-14T10:16:25.182Z,101410.00
2023-05-14T10:18:57.279Z,101409.53
2023-05-14T10:21:27.656Z,101391.22
2023-05-14T10:24:00.455Z,101387.59
2023-05-14T10:26:30.455Z,101385.03
2023-05-14T10:29:00.034Z,101390.34
2023-05-14T10:31:51.340Z,101396.63
2023-05-14T10:34:37.865Z,101388.03
2023-05-14T10:37:08.087Z,101368.06
2023-05-14T10:39:47.666Z,101363.78
2023-05-14T10:42:20.051Z,101363.75
2023-05-14T10:44:55.613Z,101372.50
2023-05-14T10:47:25.247Z,101367.16
2023-05-14T10:49:56.769Z,101386.28
2023-05-14T10:52:26.832Z,101362.22
2023-05-14T10:55:03.215Z,101363.91
2023-05-14T10:57:34.551Z,101365.41
2023-05-14T11:00:07.396Z,101357.66
2023-05-14T11:02:38.635Z,101357.59
2023-05-14T11:05:10.731Z,101349.94
2023-05-14T11:07:41.653Z,101347.88
2023-05-14T11:10:15.765Z,101348.16
2023-05-14T11:12:46.456Z,101337.59
2023-05-14T11:15:17.457Z,101337.44
2023-05-14T11:17:48.486Z,101335.78
2023-05-14T11:20:18.980Z,101333.91
2023-05-14T11:22:51.737Z,101333.78
2023-05-14T11:25:25.998Z,101343.13
2023-05-14T11:27:58.408Z,101337.00
2023-05-14T11:30:29.445Z,101342.16
2023-05-14T11:33:01.232Z,101345.53
2023-05-14T11:35:31.578Z,101344.41
2023-05-14T11:38:01.048Z,101348.50
2023-05-14T11:40:33.136Z,101343.34
2023-05-14T11:43:02.824Z,101341.72
2023-05-14T11:45:33.403Z,101337.25
2023-05-14T11:48:02.979Z,101344.19
2023-05-14T11:50:33.178Z,101338.84
2023-05-14T11:53:02.731Z,101338.69
2023-05-14T11:55:37.130Z,101332.25
2023-05-14T11:58:06.648Z,101346.38
2023-05-14T12:00:36.582Z,101342.13
2023-05-14T12:03:06.644Z,101349.81
2023-05-14T12:05:36.190Z,101330.69
2023-05-14T12:08:05.657Z,101334.31
2023-05-14T12:10:46.876Z,101328.59
2023-05-14T12:13:18.581Z,101318.31
2023-05-14T12:15:49.781Z,101317.59
2023-05-14T12:18:24.558Z,101321.03
2023-05-14T12:20:54.820Z,101317.97
2023-05-14T12:23:28.213Z,101309.44
2023-05-14T12:26:06.154Z,101303.22
2023-05-14T12:28:38.542Z,101306.56
2023-05-14T12:31:08.602Z,101303.00
2023-05-14T12:33:38.194Z,101308.94
2023-05-14T12:36:20.417Z,101301.81
2023-05-14T12:38:51.158Z,101304.53
2023-05-14T12:41:23.296Z,101290.00
2023-05-14T12:43:52.804Z,101291.84
2023-05-14T12:46:22.511Z,101283.03
2023-05-14T12:48:53.468Z,101294.25
2023-05-14T12:51:23.216Z,101289.69
2023-05-14T12:53:54.348Z,101276.22
2023-05-14T12:56:28.490Z,101248.56
2023-05-14T12:58:58.884Z,101247.66
2023-05-14T13:01:28.518Z,101243.31
2023-05-14T13:03:58.935Z,101230.22
2023-05-14T13:06:28.551Z,101259.88
2023-05-14T13:09:00.332Z,101273.88
2023-05-14T13:11:32.511Z,101267.84
2023-05-14T13:14:02.218Z,101252.94
2023-05-14T13:16:32.428Z,101255.59
2023-05-14T13:19:02.022Z,101239.81
2023-05-14T13:21:31.778Z,101228.31
2023-05-14T13:24:01.234Z,101224.66
2023-05-14T13:26:33.337Z,101226.59
2023-05-14T13:29:02.834Z,101234.56
2023-05-14T13:31:34.437Z,101231.09
2023-05-14T13:34:04.383Z,101238.03
2023-05-14T13:36:34.008Z,101225.66
2023-05-14T13:39:03.482Z,101223.88
2023-05-14T13:41:37.985Z,101215.25
2023-05-14T13:44:08.080Z,101221.41
2023-05-14T13:46:37.973Z,101244.81
2023-05-14T13:49:07.519Z,101265.53
2023-05-14T13:51:37.006Z,101287.16
2023-05-14T13:54:06.633Z,101306.88
2023-05-14T13:56:38.772Z,101290.78
2023-05-14T13:59:08.352Z,101283.34
2023-05-14T14:01:37.871Z,101266.94
2023-05-14T14:04:07.797Z,101264.81
2023-05-14T14:06:37.319Z,101260.44
2023-05-14T14:09:07.053Z,101251.84
2023-05-14T14:11:39.178Z,101246.78
2023-05-14T14:14:08.720Z,101246.00
2023-05-14T14:16:38.337Z,101233.91
2023-05-14T14:19:08.139Z,101231.41
2023-05-14T14:21:39.842Z,101225.44
2023-05-14T14:24:09.932Z,101228.97
2023-05-14T14:26:42.015Z,101229.91
2023-05-14T14:29:11.493Z,101225.53
2023-05-14T14:31:41.067Z,101221.19
2023-05-14T14:34:10.545Z,101215.97
2023-05-14T14:36:40.010Z,101206.41
2023-05-14T14:39:09.514Z,101206.44
2023-05-14T14:41:39.037Z,101208.19
2023-05-14T14:44:11.355Z,101196.84
2023-05-14T14:46:43.002Z,101209.03
2023-05-14T14:49:12.486Z,101187.91
2023-05-14T14:51:41.984Z,101193.19
2023-05-14T14:54:11.468Z,101188.84
2023-05-14T14:56:40.949Z,101190.75
2023-05-14T14:59:13.011Z,101186.38
2023-05-14T15:01:42.896Z,101187.19
2023-05-14T15:04:12.408Z,101188.22
2023-05-14T15:06:41.929Z,101175.97
2023-05-14T15:09:11.899Z,101189.03
2023-05-14T15:11:41.412Z,101190.00
2023-05-14T15:14:13.538Z,101178.78
2023-05-14T15:16:43.181Z,101178.66
2023-05-14T15:19:12.752Z,101181.22
2023-05-14T15:21:42.312Z,101188.19
2023-05-14T15:24:14.193Z,101177.63
2023-05-14T15:26:43.815Z,101165.47
2023-05-14T15:29:15.851Z,101170.69
2023-05-14T15:31:45.485Z,101166.28
2023-05-14T15:34:15.016Z,101164.66
2023-05-14T15:36:44.486Z,101161.28
2023-05-14T15:39:13.987Z,101153.38
2023-05-14T15:41:43.452Z,101153.38
2023-05-14T15:44:15.502Z,101155.88
2023-05-14T15:46:45.064Z,101156.69
2023-05-14T15:49:14.579Z,101162.66
2023-05-14T15:51:44.094Z,101159.13
2023-05-14T15:54:13.645Z,101158.31
2023-05-14T15:56:43.150Z,101146.13
2023-05-14T15:59:16.612Z,101155.78
2023-05-14T16:01:46.195Z,101139.34
2023-05-14T16:04:15.751Z,101130.69
2023-05-14T16:06:45.422Z,101130.66
2023-05-14T16:09:14.979Z,101130.56
2023-05-14T16:11:44.752Z,101132.38
2023-05-14T16:14:16.797Z,101125.53
2023-05-14T16:16:46.431Z,101127.31
2023-05-14T16:19:16.101Z,101121.22
2023-05-14T16:21:45.753Z,101119.50
2023-05-14T16:24:15.296Z,101120.38
2023-05-14T16:26:44.821Z,101118.69
2023-05-14T16:29:16.927Z,101124.00
2023-05-14T16:31:46.480Z,101113.53
2023-05-14T16:34:16.297Z,101124.81
2023-05-14T16:36:45.836Z,101116.06
2023-05-14T16:39:15.537Z,101111.59
2023-05-14T16:41:45.036Z,101084.53
2023-05-14T16:44:17.099Z,101105.56
2023-05-14T16:46:46.593Z,101115.09
2023-05-14T16:49:16.162Z,101116.94
2023-05-14T16:51:45.820Z,101103.81
2023-05-14T16:54:15.333Z,101113.50
2023-05-14T16:56:48.145Z,101114.44
2023-05-14T16:59:20.589Z,101115.16
2023-05-14T17:01:50.867Z,101122.97
2023-05-14T17:04:21.266Z,101125.56
2023-05-14T17:06:51.414Z,101125.69
2023-05-14T17:09:20.958Z,101122.22
2023-05-14T17:11:51.025Z,101123.09
2023-05-14T17:14:23.144Z,101130.03
2023-05-14T17:16:52.708Z,101124.69
2023-05-14T17:19:22.445Z,101122.94
2023-05-14T17:21:52.096Z,101117.50
2023-05-14T17:24:21.769Z,101127.06
2023-05-14T17:26:51.277Z,101119.03
2023-05-14T17:29:23.423Z,101124.06
2023-05-14T17:31:53.191Z,101123.84
2023-05-14T17:34:22.821Z,101127.97
2023-05-14T17:36:52.383Z,101128.63
2023-05-14T17:39:21.900Z,101119.81
2023-05-14T17:41:51.439Z,101125.88
2023-05-14T17:44:23.530Z,101121.41
2023-05-14T17:46:53.084Z,101126.69
2023-05-14T17:49:22.583Z,101120.44
2023-05-14T17:51:52.085Z,101124.66
2023-05-14T17:54:21.610Z,101127.09
2023-05-14T17:56:51.678Z,101128.75
2023-05-14T17:59:24.391Z,101114.59
2023-05-14T18:01:54.090Z,101115.47
2023-05-14T18:04:23.587Z,101120.59
2023-05-14T18:06:53.214Z,101120.50
2023-05-14T18:09:22.709Z,101130.78
2023-05-14T18:11:53.053Z,101122.75
2023-05-14T18:14:25.892Z,101124.38
2023-05-14T18:16:56.041Z,101134.63
2023-05-14T18:19:25.541Z,101124.13
2023-05-14T18:21:55.622Z,101127.53
2023-05-14T18:24:25.139Z,101124.81
2023-05-14T18:26:54.769Z,101125.53
2023-05-14T18:29:26.892Z,101132.38
2023-05-14T18:31:56.389Z,101126.16
2023-05-14T18:34:25.873Z,101136.44
2023-05-14T18:36:55.422Z,101128.31
2023-05-14T18:39:24.913Z,101118.56
2023-05-14T18:41:55.247Z,101114.03
2023-05-14T18:44:27.340Z,101110.41
2023-05-14T18:46:59.468Z,101103.41
2023-05-14T18:49:28.967Z,101098.00
2023-05-14T18:51:58.423Z,101093.47
2023-05-14T18:54:27.873Z,101072.53
2023-05-14T18:56:57.374Z,101077.63
2023-05-14T18:59:29.596Z,101064.50
2023-05-14T19:01:59.199Z,101061.78
2023-05-14T19:04:29.710Z,101055.56
2023-05-14T19:07:02.729Z,101036.13
2023-05-14T19:09:32.252Z,101033.25
2023-05-14T19:12:01.757Z,101019.06
2023-05-14T19:14:33.860Z,100997.28
2023-05-14T19:17:03.427Z,100989.50
2023-05-14T19:19:33.006Z,100977.09
2023-05-14T19:22:02.506Z,100956.09
2023-05-14T19:24:32.041Z,100929.97
2023-05-14T19:27:01.552Z,100918.44
2023-05-14T19:29:34.749Z,100900.94
2023-05-14T19:32:04.739Z,100886.88
2023-05-14T19:34:34.342Z,100865.88
2023-05-14T19:37:04.230Z,100868.38
2023-05-14T19:39:33.697Z,100864.78
2023-05-14T19:42:03.225Z,100862.16
2023-05-14T19:44:35.310Z,100842.81
2023-05-14T19:47:04.919Z,100841.91
2023-05-14T19:49:34.872Z,100830.50
2023-05-14T19:52:04.334Z,100826.88
2023-05-14T19:54:33.838Z,100836.41
2023-05-14T19:57:03.560Z,100830.28
2023-05-14T19:59:35.624Z,100833.59
2023-05-14T20:02:05.241Z,100830.97
2023-05-14T20:04:34.977Z,100824.69
2023-05-14T20:07:04.964Z,100821.13
2023-05-14T20:09:34.532Z,100824.56
2023-05-14T20:12:04.059Z,100820.13
2023-05-14T20:14:36.337Z,100819.88
2023-05-14T20:17:06.609Z,100814.63
2023-05-14T20:19:36.075Z,100812.63
2023-05-14T20:22:05.570Z,100813.22
2023-05-14T20:24:35.149Z,100813.16
2023-05-14T20:27:04.668Z,100820.00
2023-05-14T20:29:36.760Z,100825.94
2023-05-14T20:32:06.494Z,100826.66
2023-05-14T20:34:36.048Z,100838.78
2023-05-14T20:37:06.872Z,100830.69
2023-05-14T20:39:36.457Z,100826.97
2023-05-14T20:42:06.148Z,100826.78
2023-05-14T20:44:38.252Z,100835.41
2023-05-14T20:47:08.481Z,100829.25
2023-05-14T20:49:38.073Z,100825.69
2023-05-14T20:52:07.910Z,100833.41
2023-05-14T20:54:37.414Z,100833.31
2023-05-14T20:57:07.271Z,100836.78
2023-05-14T20:59:39.392Z,100829.97
2023-05-14T21:02:09.013Z,100837.00
2023-05-14T21:04:38.726Z,100839.47
2023-05-14T21:07:08.705Z,100841.81
2023-05-14T21:09:38.217Z,100852.00
2023-05-14T21:12:08.672Z,100846.69
2023-05-14T21:14:41.002Z,100853.63
2023-05-14T21:17:10.461Z,100861.16
2023-05-14T21:19:39.985Z,100856.63
2023-05-14T21:22:09.720Z,100861.91
2023-05-14T21:24:39.179Z,100871.09
2023-05-14T21:27:08.946Z,100884.00
2023-05-14T21:29:41.083Z,100878.75
2023-05-14T21:32:11.657Z,100867.28
2023-05-14T21:34:41.213Z,100863.47
2023-05-14T21:37:10.728Z,100863.28
2023-05-14T21:39:40.257Z,100875.84
2023-05-14T21:42:10.798Z,100890.53
2023-05-14T21:44:42.873Z,100889.56
2023-05-14T21:47:12.407Z,100880.69
2023-05-14T21:49:42.036Z,100907.44
2023-05-14T21:52:11.812Z,100902.63
2023-05-14T21:54:41.316Z,100922.25
2023-05-14T21:57:10.792Z,100904.78
2023-05-14T21:59:42.879Z,100913.44
2023-05-14T22:02:12.481Z,100909.91
2023-05-14T22:04:42.121Z,100918.34
2023-05-14T22:07:11.646Z,100928.75
2023-05-14T22:09:41.117Z,100915.69
2023-05-14T22:12:11.090Z,100919.13
2023-05-14T22:14:43.186Z,100925.34
2023-05-14T22:17:12.796Z,100925.22
2023-05-14T22:19:42.318Z,100935.97
2023-05-14T22:22:11.801Z,100941.22
2023-05-14T22:24:41.299Z,100945.38
2023-05-14T22:27:10.902Z,100939.31
2023-05-14T22:29:42.963Z,100937.91
2023-05-14T22:32:12.421Z,100932.94
2023-05-14T22:34:41.922Z,100934.97
2023-05-14T22:37:11.666Z,100967.69
2023-05-14T22:39:41.332Z,100979.50
2023-05-14T22:42:11.112Z,100995.03
2023-05-14T22:44:43.171Z,100968.59
2023-05-14T22:47:12.696Z,100956.72
2023-05-14T22:49:43.753Z,100957.63
2023-05-14T22:52:13.285Z,100948.69
2023-05-14T22:54:42.798Z,100954.91
2023-05-14T22:57:12.333Z,100962.59
2023-05-14T22:59:44.370Z,100955.34
2023-05-14T23:02:13.943Z,100940.38
2023-05-14T23:04:43.587Z,100936.03
2023-05-14T23:07:13.129Z,100948.50
2023-05-14T23:09:43.673Z,100953.44
2023-05-14T23:12:13.138Z,100954.97
2023-05-14T23:14:46.137Z,100968.06
2023-05-14T23:17:15.677Z,100946.84
2023-05-14T23:19:45.255Z,100949.78
2023-05-14T23:22:14.786Z,100966.75
2023-05-14T23:24:44.266Z,100966.72
2023-05-14T23:27:14.194Z,100970.94
2023-05-14T23:29:46.267Z,100969.19
2023-05-14T23:32:15.826Z,100969.19
2023-05-14T23:34:45.388Z,100976.25
2023-05-14T23:37:14.977Z,100989.69
2023-05-14T23:39:44.454Z,101000.47
2023-05-14T23:42:13.959Z,100995.50
2023-05-14T23:44:46.135Z,101003.78
2023-05-14T23:47:15.743Z,101010.25
2023-05-14T23:49:45.312Z,101014.03
2023-05-14T23:52:14.884Z,101017.19
2023-05-14T23:54:44.350Z,101020.00
2023-05-14T23:57:14.648Z,101030.75
2023-05-14T23:59:46.917Z,101048.13
